createdAt,value
2022-09-17T00:01:41.726Z,13.49
2022-09-17T00:04:11.642Z,13.28
2022-09-17T00:06:41.518Z,13.39
2022-09-17T00:09:10.693Z,13.15
2022-09-17T00:11:41.704Z,13.27
2022-09-17T00:14:15.754Z,13.01
2022-09-17T00:16:46.692Z,12.98
2022-09-17T00:19:18.629Z,13.19
2022-09-17T00:21:50.116Z,13.09
2022-09-17T00:24:21.006Z,13.19
2022-09-17T00:26:52.611Z,12.81
2022-09-17T00:29:21.254Z,12.80
2022-09-17T00:31:50.576Z,12.88
2022-09-17T00:34:19.072Z,12.91
2022-09-17T00:36:47.512Z,12.96
2022-09-17T00:39:17.592Z,13.08
2022-09-17T00:41:46.714Z,12.90
2022-09-17T00:44:46.255Z,13.05
2022-09-17T00:47:21.040Z,13.27
2022-09-17T00:49:56.291Z,12.95
2022-09-17T00:52:31.923Z,12.85
2022-09-17T00:55:13.018Z,12.88
2022-09-17T00:57:42.623Z,12.98
2022-09-17T01:00:13.075Z,12.80
2022-09-17T01:02:42.625Z,13.02
2022-09-17T01:05:12.500Z,12.95
2022-09-17T01:07:58.918Z,12.99
2022-09-17T01:10:57.459Z,12.94
2022-09-17T01:13:47.725Z,13.16
2022-09-17T01:16:21.702Z,13.31
2022-09-17T01:19:22.269Z,13.28
2022-09-17T01:22:02.506Z,13.49
2022-09-17T01:25:00.442Z,13.56
2022-09-17T01:28:15.561Z,13.36
2022-09-17T01:31:10.130Z,13.60
2022-09-17T01:33:46.850Z,13.19
2022-09-17T01:36:34.392Z,13.23
2022-09-17T01:39:13.425Z,13.28
2022-09-17T01:41:52.234Z,13.12
2022-09-17T01:44:29.383Z,13.22
2022-09-17T01:47:06.987Z,13.06
2022-09-17T01:49:39.204Z,13.19
2022-09-17T01:52:10.440Z,13.16
2022-09-17T01:54:45.652Z,13.05
2022-09-17T01:57:19.362Z,13.33
2022-09-17T01:59:52.363Z,13.40
2022-09-17T02:02:30.728Z,13.41
2022-09-17T02:05:03.996Z,13.04
2022-09-17T02:07:35.965Z,13.27
2022-09-17T02:10:08.736Z,13.23
2022-09-17T02:12:42.172Z,13.28
2022-09-17T02:15:16.586Z,12.86
2022-09-17T02:17:51.188Z,13.35
2022-09-17T02:20:23.140Z,12.95
2022-09-17T02:22:57.828Z,12.85
2022-09-17T02:25:34.755Z,12.82
2022-09-17T02:28:09.211Z,12.96
2022-09-17T02:30:37.826Z,12.65
2022-09-17T02:33:13.273Z,12.77
2022-09-17T02:35:42.170Z,12.74
2022-09-17T02:38:11.368Z,12.84
2022-09-17T02:40:48.847Z,12.84
2022-09-17T02:43:27.642Z,12.95
2022-09-17T02:46:11.723Z,13.10
2022-09-17T02:49:11.304Z,13.14
2022-09-17T02:51:52.741Z,12.96
2022-09-17T02:54:29.515Z,13.14
2022-09-17T02:57:11.216Z,13.31
2022-09-17T02:59:51.800Z,13.14
2022-09-17T03:02:25.293Z,13.17
2022-09-17T03:04:55.853Z,12.78
2022-09-17T03:07:25.491Z,12.73
2022-09-17T03:09:53.920Z,12.89
2022-09-17T03:12:25.797Z,12.66
2022-09-17T03:14:54.098Z,12.59
2022-09-17T03:17:23.246Z,12.43
2022-09-17T03:19:54.098Z,12.59
2022-09-17T03:22:24.277Z,12.39
2022-09-17T03:24:53.033Z,12.49
2022-09-17T03:27:21.426Z,12.71
2022-09-17T03:29:49.899Z,12.83
2022-09-17T03:32:18.395Z,12.63
2022-09-17T03:34:49.755Z,12.64
2022-09-17T03:37:18.437Z,12.20
2022-09-17T03:39:48.206Z,12.53
2022-09-17T03:42:16.472Z,12.48
2022-09-17T03:44:47.223Z,12.76
2022-09-17T03:47:17.016Z,12.86
2022-09-17T03:49:46.194Z,12.88
2022-09-17T03:52:14.421Z,12.87
2022-09-17T03:54:42.677Z,12.72
2022-09-17T03:57:12.448Z,12.68
2022-09-17T03:59:40.748Z,12.39
2022-09-17T04:02:09.269Z,12.35
2022-09-17T04:04:37.832Z,12.55
2022-09-17T04:07:06.757Z,12.32
2022-09-17T04:09:35.484Z,12.20
2022-09-17T04:12:04.707Z,11.92
2022-09-17T04:14:34.388Z,12.01
2022-09-17T04:17:02.641Z,11.93
2022-09-17T04:19:31.039Z,11.72
2022-09-17T04:22:00.429Z,12.14
2022-09-17T04:24:29.960Z,11.76
2022-09-17T04:26:58.274Z,12.04
2022-09-17T04:29:26.481Z,12.01
2022-09-17T04:31:56.407Z,12.16
2022-09-17T04:34:24.738Z,12.24
2022-09-17T04:36:53.434Z,12.22
2022-09-17T04:39:21.733Z,12.32
2022-09-17T04:41:50.014Z,12.24
2022-09-17T04:44:19.620Z,12.32
2022-09-17T04:46:47.948Z,12.35
2022-09-17T04:49:17.963Z,11.98
2022-09-17T04:51:49.324Z,12.12
2022-09-17T04:54:17.600Z,12.31
2022-09-17T04:56:49.009Z,12.36
2022-09-17T04:59:17.398Z,12.29
2022-09-17T05:01:46.498Z,12.40
2022-09-17T05:04:14.764Z,12.59
2022-09-17T05:06:45.101Z,12.68
2022-09-17T05:09:15.418Z,12.33
2022-09-17T05:11:43.910Z,12.53
2022-09-17T05:14:13.425Z,12.63
2022-09-17T05:16:41.827Z,12.71
2022-09-17T05:19:10.093Z,12.77
2022-09-17T05:21:38.635Z,12.75
2022-09-17T05:24:09.150Z,12.49
2022-09-17T05:26:37.809Z,12.23
2022-09-17T05:29:06.297Z,12.89
2022-09-17T05:31:36.341Z,12.74
2022-09-17T05:34:05.359Z,12.70
2022-09-17T05:36:33.710Z,12.47
2022-09-17T05:39:02.665Z,12.56
2022-09-17T05:41:32.356Z,12.12
2022-09-17T05:44:00.776Z,12.33
2022-09-17T05:46:29.292Z,12.43
2022-09-17T05:48:57.951Z,12.31
2022-09-17T05:51:26.539Z,12.38
2022-09-17T05:53:56.390Z,12.39
2022-09-17T05:56:25.344Z,12.32
2022-09-17T05:58:58.937Z,12.40
2022-09-17T06:01:28.321Z,12.41
2022-09-17T06:03:57.208Z,12.56
2022-09-17T06:06:29.456Z,12.65
2022-09-17T06:09:01.169Z,12.58
2022-09-17T06:11:29.482Z,12.86
2022-09-17T06:13:59.241Z,13.02
2022-09-17T06:16:27.837Z,13.08
2022-09-17T06:18:56.756Z,12.92
2022-09-17T06:21:25.080Z,12.90
2022-09-17T06:23:53.931Z,12.80
2022-09-17T06:26:22.316Z,12.99
2022-09-17T06:28:50.797Z,13.31
2022-09-17T06:31:20.748Z,13.37
2022-09-17T06:33:49.363Z,13.50
2022-09-17T06:36:17.799Z,13.20
2022-09-17T06:38:46.978Z,13.52
2022-09-17T06:41:16.960Z,13.56
2022-09-17T06:43:46.252Z,13.68
2022-09-17T06:46:14.595Z,13.85
2022-09-17T06:48:47.440Z,13.87
2022-09-17T06:51:15.800Z,13.86
2022-09-17T06:53:44.549Z,13.62
2022-09-17T06:56:13.162Z,13.58
2022-09-17T06:58:42.940Z,13.63
2022-09-17T07:01:15.144Z,13.64
2022-09-17T07:03:49.426Z,13.39
2022-09-17T07:06:17.778Z,13.49
2022-09-17T07:08:48.144Z,13.68
2022-09-17T07:11:17.087Z,13.75
2022-09-17T07:13:45.622Z,13.94
2022-09-17T07:16:14.024Z,14.09
2022-09-17T07:18:42.609Z,14.15
2022-09-17T07:21:12.321Z,14.11
2022-09-17T07:23:40.806Z,14.02
2022-09-17T07:26:15.279Z,13.49
2022-09-17T07:28:45.343Z,13.49
2022-09-17T07:31:16.675Z,13.43
2022-09-17T07:33:48.568Z,13.33
2022-09-17T07:36:19.109Z,13.48
2022-09-17T07:38:47.977Z,13.64
2022-09-17T07:41:18.428Z,13.26
2022-09-17T07:43:47.514Z,13.73
2022-09-17T07:46:18.805Z,13.58
2022-09-17T07:48:47.798Z,13.56
2022-09-17T07:51:19.489Z,13.67
2022-09-17T07:53:50.566Z,13.85
2022-09-17T07:56:19.057Z,14.31
2022-09-17T07:58:47.543Z,14.21
2022-09-17T08:01:17.361Z,14.55
2022-09-17T08:03:50.815Z,14.43
2022-09-17T08:06:23.394Z,14.41
2022-09-17T08:08:51.927Z,14.10
2022-09-17T08:11:44.556Z,14.11
2022-09-17T08:14:14.018Z,14.34
2022-09-17T08:16:43.062Z,14.41
2022-09-17T08:19:11.624Z,14.72
2022-09-17T08:21:41.671Z,15.26
2022-09-17T08:24:10.080Z,15.37
2022-09-17T08:26:39.100Z,15.49
2022-09-17T08:29:07.597Z,15.56
2022-09-17T08:31:36.042Z,15.47
2022-09-17T08:34:10.129Z,16.07
2022-09-17T08:36:39.991Z,16.13
2022-09-17T08:39:08.464Z,16.29
2022-09-17T08:41:53.362Z,16.15
2022-09-17T08:44:35.222Z,16.27
2022-09-17T08:47:13.393Z,15.55
2022-09-17T08:49:49.384Z,15.75
2022-09-17T08:53:10.479Z,16.04
2022-09-17T08:55:44.863Z,15.63
2022-09-17T08:58:38.410Z,15.47
2022-09-17T09:01:24.035Z,15.48
2022-09-17T09:04:49.476Z,15.52
2022-09-17T09:07:24.812Z,16.29
2022-09-17T09:10:15.057Z,16.50
2022-09-17T09:12:45.299Z,16.31
2022-09-17T09:15:36.075Z,15.69
2022-09-17T09:18:17.697Z,15.31
2022-09-17T09:20:53.590Z,15.13
2022-09-17T09:23:31.991Z,14.75
2022-09-17T09:26:15.150Z,14.79
2022-09-17T09:29:14.362Z,15.44
2022-09-17T09:32:17.280Z,15.60
2022-09-17T09:34:49.222Z,15.60
2022-09-17T09:37:26.344Z,15.75
2022-09-17T09:40:00.903Z,15.66
2022-09-17T09:42:33.500Z,15.93
2022-09-17T09:45:13.658Z,16.19
2022-09-17T09:47:56.475Z,16.39
2022-09-17T09:51:01.743Z,16.03
2022-09-17T09:53:36.603Z,16.05
2022-09-17T09:56:34.949Z,16.70
2022-09-17T09:59:03.293Z,16.52
2022-09-17T10:01:35.040Z,17.30
2022-09-17T10:04:15.896Z,17.48
2022-09-17T10:06:44.931Z,17.35
2022-09-17T10:09:16.570Z,17.30
2022-09-17T10:12:03.172Z,17.04
2022-09-17T10:14:33.097Z,16.73
2022-09-17T10:17:23.911Z,15.91
2022-09-17T10:20:25.401Z,15.41
2022-09-17T10:22:58.819Z,14.76
2022-09-17T10:25:32.125Z,14.29
2022-09-17T10:28:05.914Z,14.43
2022-09-17T10:30:36.343Z,14.68
2022-09-17T10:33:22.349Z,15.03
2022-09-17T10:36:04.393Z,15.02
2022-09-17T10:38:36.671Z,15.46
2022-09-17T10:41:29.335Z,15.71
2022-09-17T10:44:19.216Z,15.74
2022-09-17T10:46:47.700Z,15.90
2022-09-17T10:49:38.499Z,16.56
2022-09-17T10:52:13.546Z,16.83
2022-09-17T10:55:19.597Z,17.09
2022-09-17T10:58:04.143Z,16.87
2022-09-17T11:00:47.884Z,17.07
2022-09-17T11:03:51.085Z,16.95
2022-09-17T11:06:46.881Z,16.06
2022-09-17T11:09:28.177Z,15.37
2022-09-17T11:12:18.585Z,15.02
2022-09-17T11:14:57.277Z,14.74
2022-09-17T11:17:53.243Z,15.01
2022-09-17T11:20:46.749Z,15.14
2022-09-17T11:23:37.893Z,15.38
2022-09-17T11:26:20.084Z,15.61
2022-09-17T11:29:06.275Z,15.45
2022-09-17T11:31:47.092Z,15.56
2022-09-17T11:34:35.712Z,15.71
2022-09-17T11:37:11.648Z,16.07
2022-09-17T11:39:52.922Z,16.09
2022-09-17T11:42:29.276Z,16.05
2022-09-17T11:45:05.589Z,16.11
2022-09-17T11:47:40.475Z,16.23
2022-09-17T11:50:23.112Z,16.62
2022-09-17T11:53:05.812Z,16.27
2022-09-17T11:55:41.120Z,16.31
2022-09-17T11:58:16.912Z,16.54
2022-09-17T12:00:53.281Z,17.03
2022-09-17T12:03:30.494Z,17.07
2022-09-17T12:06:04.764Z,17.46
2022-09-17T12:08:48.072Z,17.31
2022-09-17T12:11:22.348Z,18.03
2022-09-17T12:13:54.772Z,17.63
2022-09-17T12:16:26.974Z,17.58
2022-09-17T12:19:05.678Z,17.35
2022-09-17T12:21:42.930Z,17.16
2022-09-17T12:24:21.897Z,16.84
2022-09-17T12:27:10.739Z,16.65
2022-09-17T12:30:18.184Z,16.68
2022-09-17T12:33:11.857Z,16.45
2022-09-17T12:36:13.294Z,15.90
2022-09-17T12:39:15.332Z,15.37
2022-09-17T12:41:56.013Z,15.04
2022-09-17T12:44:52.172Z,15.06
2022-09-17T12:47:47.882Z,15.32
2022-09-17T12:50:28.518Z,15.21
2022-09-17T12:53:15.654Z,15.60
2022-09-17T12:56:12.672Z,15.99
2022-09-17T12:59:05.463Z,15.98
2022-09-17T13:01:44.022Z,16.03
2022-09-17T13:05:03.078Z,16.37
2022-09-17T13:08:05.217Z,16.54
2022-09-17T13:11:10.705Z,16.61
2022-09-17T13:13:49.664Z,16.64
2022-09-17T13:16:24.922Z,16.82
2022-09-17T13:19:17.597Z,16.85
2022-09-17T13:21:55.677Z,16.79
2022-09-17T13:24:31.057Z,16.72
2022-09-17T13:27:03.238Z,16.52
2022-09-17T13:29:59.879Z,16.54
2022-09-17T13:32:55.264Z,16.11
2022-09-17T13:35:53.018Z,16.61
2022-09-17T13:38:24.323Z,16.79
2022-09-17T13:40:54.027Z,16.85
2022-09-17T13:43:28.446Z,16.93
2022-09-17T13:46:15.518Z,17.14
2022-09-17T13:48:58.571Z,17.25
2022-09-17T13:51:55.577Z,17.36
2022-09-17T13:54:36.594Z,17.56
2022-09-17T13:57:13.966Z,17.90
2022-09-17T13:59:59.020Z,18.13
2022-09-17T14:02:37.550Z,18.54
2022-09-17T14:05:37.028Z,19.02
2022-09-17T14:08:32.956Z,19.14
2022-09-17T14:11:05.900Z,19.13
2022-09-17T14:13:51.861Z,19.54
2022-09-17T14:16:50.605Z,19.50
2022-09-17T14:19:50.829Z,19.28
2022-09-17T14:22:26.399Z,18.78
2022-09-17T14:24:55.863Z,19.13
2022-09-17T14:27:55.002Z,19.51
2022-09-17T14:30:25.065Z,19.60
2022-09-17T14:33:06.750Z,19.39
2022-09-17T14:35:39.338Z,18.39
2022-09-17T14:38:16.314Z,17.15
2022-09-17T14:40:48.001Z,15.85
2022-09-17T14:43:25.613Z,15.41
2022-09-17T14:45:55.226Z,14.39
2022-09-17T14:48:33.389Z,14.80
2022-09-17T14:51:29.028Z,14.68
2022-09-17T14:54:18.377Z,14.69
2022-09-17T14:56:57.121Z,14.82
2022-09-17T14:59:47.241Z,15.23
2022-09-17T15:02:30.266Z,15.34
2022-09-17T15:05:02.019Z,15.54
2022-09-17T15:07:30.724Z,15.53
2022-09-17T15:10:13.722Z,15.41
2022-09-17T15:12:42.390Z,16.06
2022-09-17T15:15:21.710Z,16.11
2022-09-17T15:17:53.915Z,16.35
2022-09-17T15:20:28.934Z,16.27
2022-09-17T15:23:08.970Z,16.58
2022-09-17T15:25:39.915Z,16.58
2022-09-17T15:28:24.100Z,16.22
2022-09-17T15:30:54.869Z,16.34
2022-09-17T15:33:24.793Z,16.62
2022-09-17T15:36:17.963Z,16.19
2022-09-17T15:38:47.607Z,16.43
2022-09-17T15:41:34.690Z,16.09
2022-09-17T15:44:31.649Z,16.15
2022-09-17T15:47:38.022Z,16.46
2022-09-17T15:50:18.033Z,15.95
2022-09-17T15:52:48.625Z,16.04
2022-09-17T15:55:37.076Z,16.21
2022-09-17T15:58:23.658Z,16.20
2022-09-17T16:01:48.258Z,16.27
2022-09-17T16:04:32.140Z,16.36
2022-09-17T16:07:22.022Z,16.08
2022-09-17T16:09:54.485Z,16.03
2022-09-17T16:12:25.092Z,16.33
2022-09-17T16:14:55.955Z,16.13
2022-09-17T16:17:36.567Z,15.85
2022-09-17T16:20:15.316Z,15.94
2022-09-17T16:22:48.000Z,15.87
2022-09-17T16:25:19.241Z,15.81
2022-09-17T16:27:52.845Z,14.83
2022-09-17T16:30:23.939Z,15.96
2022-09-17T16:32:54.839Z,15.91
2022-09-17T16:35:26.076Z,15.19
2022-09-17T16:37:55.993Z,15.50
2022-09-17T16:40:35.425Z,15.22
2022-09-17T16:43:04.956Z,14.78
2022-09-17T16:45:33.502Z,14.64
2022-09-17T16:48:02.313Z,14.45
2022-09-17T16:50:30.810Z,14.15
2022-09-17T16:53:04.137Z,14.09
2022-09-17T16:55:34.921Z,14.08
2022-09-17T16:58:03.461Z,14.40
2022-09-17T17:00:32.058Z,14.29
2022-09-17T17:03:00.898Z,14.23
2022-09-17T17:05:30.004Z,14.56
2022-09-17T17:08:00.428Z,14.72
2022-09-17T17:10:34.963Z,14.29
2022-09-17T17:13:03.761Z,14.60
2022-09-17T17:15:33.270Z,14.71
2022-09-17T17:18:01.582Z,14.54
2022-09-17T17:20:32.136Z,14.76
2022-09-17T17:23:00.790Z,14.43
2022-09-17T17:25:32.388Z,14.39
2022-09-17T17:28:02.536Z,14.18
2022-09-17T17:30:34.904Z,14.11
2022-09-17T17:33:04.161Z,14.28
2022-09-17T17:35:32.758Z,14.15
2022-09-17T17:38:01.109Z,14.12
2022-09-17T17:40:29.663Z,14.04
2022-09-17T17:42:58.215Z,14.03
2022-09-17T17:45:28.061Z,13.88
2022-09-17T17:47:56.694Z,13.67
2022-09-17T17:50:25.012Z,13.69
2022-09-17T17:52:55.730Z,13.57
2022-09-17T17:55:24.353Z,13.52
2022-09-17T17:58:01.305Z,13.31
2022-09-17T18:00:31.377Z,13.57
2022-09-17T18:02:59.812Z,13.45
2022-09-17T18:05:28.575Z,13.62
2022-09-17T18:07:59.247Z,13.62
2022-09-17T18:10:29.663Z,13.56
2022-09-17T18:12:58.095Z,13.59
2022-09-17T18:15:26.422Z,13.58
2022-09-17T18:17:56.345Z,13.52
2022-09-17T18:20:24.664Z,13.62
2022-09-17T18:22:54.921Z,13.74
2022-09-17T18:25:23.321Z,13.50
2022-09-17T18:27:51.701Z,13.77
2022-09-17T18:30:19.983Z,13.83
2022-09-17T18:32:49.524Z,13.69
2022-09-17T18:35:20.111Z,13.81
2022-09-17T18:37:48.508Z,13.90
2022-09-17T18:40:17.346Z,13.83
2022-09-17T18:42:45.869Z,13.79
2022-09-17T18:45:14.827Z,14.01
2022-09-17T18:47:43.579Z,13.98
2022-09-17T18:50:14.971Z,13.66
2022-09-17T18:52:44.732Z,13.94
2022-09-17T18:55:13.217Z,13.49
2022-09-17T18:57:41.726Z,13.71
2022-09-17T19:00:12.538Z,13.58
2022-09-17T19:02:40.956Z,13.44
2022-09-17T19:05:09.929Z,13.57
2022-09-17T19:07:38.231Z,13.72
2022-09-17T19:10:09.164Z,13.76
2022-09-17T19:12:38.026Z,13.93
2022-09-17T19:15:08.535Z,13.94
2022-09-17T19:17:37.359Z,13.95
2022-09-17T19:20:06.705Z,14.15
2022-09-17T19:22:35.020Z,14.06
2022-09-17T19:25:03.378Z,13.91
2022-09-17T19:27:33.064Z,13.92
2022-09-17T19:30:01.350Z,13.94
2022-09-17T19:32:29.753Z,13.91
2022-09-17T19:34:58.587Z,13.93
2022-09-17T19:37:27.262Z,13.83
2022-09-17T19:39:55.802Z,13.83
2022-09-17T19:42:26.738Z,13.88
2022-09-17T19:44:56.671Z,13.94
2022-09-17T19:47:25.442Z,13.84
2022-09-17T19:49:54.063Z,13.27
2022-09-17T19:52:23.008Z,13.81
2022-09-17T19:54:51.392Z,13.59
2022-09-17T19:57:20.679Z,13.63
2022-09-17T19:59:49.107Z,13.91
2022-09-17T20:02:19.428Z,13.72
2022-09-17T20:04:47.928Z,13.86
2022-09-17T20:07:16.532Z,14.08
2022-09-17T20:09:46.055Z,13.75
2022-09-17T20:12:14.561Z,13.12
2022-09-17T20:14:43.158Z,13.08
2022-09-17T20:17:12.280Z,13.18
2022-09-17T20:19:42.476Z,13.06
2022-09-17T20:22:10.810Z,13.39
2022-09-17T20:24:39.449Z,13.37
2022-09-17T20:27:07.654Z,13.68
2022-09-17T20:29:35.951Z,13.81
2022-09-17T20:32:04.847Z,13.76
2022-09-17T20:34:33.266Z,13.76
2022-09-17T20:37:13.229Z,13.86
2022-09-17T20:39:42.188Z,13.89
2022-09-17T20:42:10.571Z,13.98
2022-09-17T20:44:39.132Z,14.00
2022-09-17T20:47:07.793Z,13.82
2022-09-17T20:49:36.158Z,14.16
2022-09-17T20:52:06.133Z,14.15
2022-09-17T20:54:34.849Z,14.11
2022-09-17T20:57:03.108Z,14.08
2022-09-17T20:59:50.935Z,14.03
2022-09-17T21:02:21.693Z,13.75
2022-09-17T21:04:51.120Z,13.74
2022-09-17T21:07:21.052Z,14.03
2022-09-17T21:09:49.358Z,13.73
2022-09-17T21:12:17.648Z,14.21
2022-09-17T21:14:45.982Z,14.18
2022-09-17T21:17:14.429Z,14.00
2022-09-17T21:19:42.817Z,14.01
2022-09-17T21:22:11.088Z,13.85
2022-09-17T21:24:40.988Z,13.94
2022-09-17T21:27:09.358Z,13.88
2022-09-17T21:29:37.757Z,13.94
2022-09-17T21:32:06.241Z,14.10
2022-09-17T21:34:35.167Z,14.18
2022-09-17T21:37:05.253Z,14.25
2022-09-17T21:39:34.999Z,14.30
2022-09-17T21:42:04.835Z,14.25
2022-09-17T21:44:33.274Z,14.12
2022-09-17T21:47:02.246Z,13.92
2022-09-17T21:49:30.578Z,13.61
2022-09-17T21:51:59.148Z,13.73
2022-09-17T21:54:27.380Z,13.76
2022-09-17T21:56:56.034Z,13.69
2022-09-17T21:59:27.147Z,13.86
2022-09-17T22:01:55.732Z,13.81
2022-09-17T22:04:24.180Z,13.70
2022-09-17T22:06:53.246Z,13.94
2022-09-17T22:09:24.684Z,13.87
2022-09-17T22:11:54.827Z,13.81
2022-09-17T22:14:25.912Z,14.04
2022-09-17T22:16:58.730Z,14.08
2022-09-17T22:19:27.480Z,13.90
2022-09-17T22:21:57.341Z,14.22
2022-09-17T22:24:26.627Z,14.24
2022-09-17T22:26:58.152Z,14.15
2022-09-17T22:29:31.631Z,14.38
2022-09-17T22:32:00.256Z,13.94
2022-09-17T22:34:29.796Z,14.06
2022-09-17T22:36:59.076Z,14.25
2022-09-17T22:39:27.417Z,14.28
2022-09-17T22:41:56.257Z,14.18
2022-09-17T22:44:24.764Z,14.08
2022-09-17T22:46:54.711Z,14.06
2022-09-17T22:49:23.273Z,13.88
2022-09-17T22:51:51.600Z,13.92
2022-09-17T22:54:20.750Z,13.94
2022-09-17T22:56:49.598Z,14.05
2022-09-17T22:59:19.153Z,13.80
2022-09-17T23:01:47.735Z,13.29
2022-09-17T23:04:17.951Z,13.78
2022-09-17T23:06:47.184Z,13.84
2022-09-17T23:09:15.964Z,14.00
2022-09-17T23:11:45.341Z,13.82
2022-09-17T23:14:16.247Z,13.86
2022-09-17T23:16:47.138Z,14.05
2022-09-17T23:19:18.996Z,14.10
2022-09-17T23:21:48.212Z,14.25
2022-09-17T23:24:20.227Z,14.21
2022-09-17T23:26:49.811Z,14.20
2022-09-17T23:29:18.821Z,14.43
2022-09-17T23:31:47.341Z,14.48
2022-09-17T23:34:17.196Z,14.37
2022-09-17T23:36:45.527Z,13.94
2022-09-17T23:39:13.860Z,14.37
2022-09-17T23:41:45.626Z,14.27
2022-09-17T23:44:16.222Z,14.26
2022-09-17T23:46:46.761Z,14.30
2022-09-17T23:49:17.416Z,14.24
2022-09-17T23:51:46.395Z,14.31
2022-09-17T23:54:14.747Z,14.48
2022-09-17T23:56:43.056Z,14.19
2022-09-17T23:59:12.261Z,14.58
